Terminal Aerodrome Forecast
Issued by NWS Shreveport, LA

Home | Current Version | Previous Version | Text Only | Print | Product List | Glossary On
Versions: 1 2 3 4 5 6 7 8 9 10 11 12
764
FTUS44 KSHV 300537
TAFTXK
TAF
KTXK 300537Z 3006/0106 35003KT P6SM FEW280
     FM301500 33006KT P6SM FEW280
     FM010100 29003KT P6SM SKC=

USA.gov is the U.S. government's official web portal to all federal, state and local government web resources and services.